createdAt,value
2018-03-04T00:00:08.411Z,60.00
2018-03-04T00:02:35.996Z,59.80
2018-03-04T00:05:03.628Z,59.90
2018-03-04T00:07:31.197Z,60.00
2018-03-04T00:09:58.746Z,59.80
2018-03-04T00:12:26.288Z,59.70
2018-03-04T00:14:53.916Z,59.70
2018-03-04T00:17:21.451Z,59.90
2018-03-04T00:19:49.004Z,59.80
2018-03-04T00:22:16.540Z,59.90
2018-03-04T00:24:44.141Z,60.10
2018-03-04T00:27:11.710Z,60.00
2018-03-04T00:29:39.265Z,60.00
2018-03-04T00:32:06.865Z,60.20
2018-03-04T00:34:35.206Z,60.30
2018-03-04T00:37:02.727Z,60.20
2018-03-04T00:39:30.304Z,60.20
2018-03-04T00:41:57.900Z,60.30
2018-03-04T00:44:26.209Z,60.20
2018-03-04T00:46:53.798Z,60.10
2018-03-04T00:49:21.397Z,60.40
2018-03-04T00:51:49.743Z,60.50
2018-03-04T00:54:17.320Z,60.50
2018-03-04T00:56:44.896Z,60.50
2018-03-04T00:59:12.539Z,60.30
2018-03-04T01:01:40.086Z,60.30
2018-03-04T01:04:07.720Z,60.20
2018-03-04T01:06:35.327Z,60.30
2018-03-04T01:09:02.964Z,60.40
2018-03-04T01:11:30.536Z,60.40
2018-03-04T01:13:58.129Z,60.40
2018-03-04T01:16:25.709Z,60.40
2018-03-04T01:18:53.261Z,60.20
2018-03-04T01:21:20.830Z,60.30
2018-03-04T01:23:48.369Z,60.20
2018-03-04T01:26:16.709Z,60.20
2018-03-04T01:28:44.247Z,60.10
2018-03-04T01:31:11.839Z,60.30
2018-03-04T01:33:39.414Z,60.50
2018-03-04T01:36:08.034Z,60.60
2018-03-04T01:38:35.572Z,60.60
2018-03-04T01:41:04.040Z,61.00
2018-03-04T01:43:31.564Z,60.90
2018-03-04T01:45:59.112Z,61.00
2018-03-04T01:48:26.690Z,61.00
2018-03-04T01:50:54.245Z,61.10
2018-03-04T01:53:21.890Z,60.90
2018-03-04T01:55:49.471Z,60.70
2018-03-04T01:58:17.038Z,61.00
2018-03-04T02:00:44.636Z,61.00
2018-03-04T02:03:12.210Z,61.20
2018-03-04T02:05:39.785Z,61.10
2018-03-04T02:08:07.322Z,61.10
2018-03-04T02:10:34.907Z,61.00
2018-03-04T02:13:02.444Z,60.90
2018-03-04T02:15:30.028Z,60.90
2018-03-04T02:17:57.561Z,61.10
2018-03-04T02:20:25.151Z,61.30
2018-03-04T02:22:52.736Z,61.40
2018-03-04T02:25:20.306Z,61.60
2018-03-04T02:27:47.903Z,61.60
2018-03-04T02:30:15.484Z,61.70
2018-03-04T02:32:43.054Z,61.50
2018-03-04T02:35:10.599Z,61.40
2018-03-04T02:37:38.248Z,61.40
2018-03-04T02:40:05.784Z,61.30
2018-03-04T02:42:33.361Z,61.30
2018-03-04T02:45:00.939Z,61.50
2018-03-04T02:47:28.497Z,61.40
2018-03-04T02:49:56.024Z,61.30
2018-03-04T02:52:26.092Z,61.30
2018-03-04T02:54:53.657Z,61.30
2018-03-04T02:57:21.225Z,61.40
2018-03-04T02:59:48.759Z,61.70
2018-03-04T03:02:16.325Z,61.70
2018-03-04T03:04:43.881Z,61.50
2018-03-04T03:07:11.440Z,61.50
2018-03-04T03:09:38.994Z,61.40
2018-03-04T03:12:06.524Z,61.60
2018-03-04T03:14:34.084Z,61.60
2018-03-04T03:17:02.393Z,62.00
2018-03-04T03:19:29.977Z,61.90
2018-03-04T03:21:57.520Z,62.00
2018-03-04T03:24:25.080Z,61.70
2018-03-04T03:26:52.638Z,61.80
2018-03-04T03:29:20.156Z,61.80
2018-03-04T03:31:47.684Z,61.40
2018-03-04T03:34:15.244Z,61.30
2018-03-04T03:36:42.807Z,61.60
2018-03-04T03:39:10.342Z,61.40
2018-03-04T03:41:37.884Z,61.40
2018-03-04T03:44:05.416Z,61.70
2018-03-04T03:46:33.726Z,61.80
2018-03-04T03:49:01.269Z,61.60
2018-03-04T03:51:28.833Z,61.70
2018-03-04T03:53:56.376Z,61.30
2018-03-04T03:56:23.921Z,61.20
2018-03-04T03:58:51.482Z,60.90
2018-03-04T04:01:19.045Z,60.90
2018-03-04T04:03:46.594Z,61.00
2018-03-04T04:06:14.171Z,61.30
2018-03-04T04:08:41.722Z,61.80
2018-03-04T04:11:09.292Z,61.10
2018-03-04T04:13:37.591Z,61.40
2018-03-04T04:16:05.134Z,61.40
2018-03-04T04:18:33.430Z,61.40
2018-03-04T04:21:01.030Z,61.40
2018-03-04T04:23:28.668Z,61.00
2018-03-04T04:25:56.210Z,61.00
2018-03-04T04:28:23.787Z,61.00
2018-03-04T04:30:51.306Z,60.90
2018-03-04T04:33:19.639Z,61.10
2018-03-04T04:35:47.183Z,61.00
2018-03-04T04:38:14.745Z,61.40
2018-03-04T04:40:42.300Z,61.10
2018-03-04T04:43:09.828Z,61.00
2018-03-04T04:45:37.382Z,60.90
2018-03-04T04:48:05.680Z,61.40
2018-03-04T04:50:33.243Z,61.30
2018-03-04T04:53:00.775Z,61.10
2018-03-04T04:55:28.323Z,61.30
2018-03-04T04:57:55.873Z,61.50
2018-03-04T05:00:23.446Z,61.40
2018-03-04T05:02:50.983Z,61.10
2018-03-04T05:05:19.320Z,61.00
2018-03-04T05:07:46.855Z,61.00
2018-03-04T05:10:14.404Z,61.30
2018-03-04T05:12:42.741Z,61.30
2018-03-04T05:15:10.289Z,61.30
2018-03-04T05:17:37.857Z,61.00
2018-03-04T05:20:05.413Z,60.90
2018-03-04T05:22:33.011Z,60.60
2018-03-04T05:25:00.592Z,60.50
2018-03-04T05:27:28.150Z,60.70
2018-03-04T05:29:56.920Z,60.70
2018-03-04T05:32:24.577Z,60.60
2018-03-04T05:34:52.144Z,60.70
2018-03-04T05:37:19.763Z,60.30
2018-03-04T05:39:47.291Z,60.10
2018-03-04T05:42:15.580Z,60.00
2018-03-04T05:44:43.174Z,59.90
2018-03-04T05:47:10.727Z,60.10
2018-03-04T05:49:38.294Z,60.30
2018-03-04T05:52:05.851Z,60.20
2018-03-04T05:54:33.368Z,60.10
2018-03-04T05:57:00.932Z,60.30
2018-03-04T05:59:28.492Z,60.30
2018-03-04T06:01:56.038Z,60.10
2018-03-04T06:04:24.468Z,59.80
2018-03-04T06:06:52.020Z,59.80
2018-03-04T06:09:19.619Z,59.60
2018-03-04T06:11:47.154Z,59.60
2018-03-04T06:14:14.708Z,59.50
2018-03-04T06:16:42.256Z,59.60
2018-03-04T06:19:09.828Z,59.80
2018-03-04T06:21:37.387Z,59.60
2018-03-04T06:24:04.907Z,59.60
2018-03-04T06:26:32.460Z,59.80
2018-03-04T06:29:00.069Z,60.00
2018-03-04T06:31:27.636Z,60.00
2018-03-04T06:33:55.195Z,60.00
2018-03-04T06:36:22.715Z,60.00
2018-03-04T06:38:50.276Z,60.10
2018-03-04T06:41:17.812Z,60.00
2018-03-04T06:43:45.379Z,59.80
2018-03-04T06:46:12.928Z,59.60
2018-03-04T06:48:41.230Z,59.70
2018-03-04T06:51:08.810Z,59.70
2018-03-04T06:53:36.380Z,59.60
2018-03-04T06:56:03.950Z,59.90
2018-03-04T06:58:31.464Z,59.60
2018-03-04T07:00:59.016Z,59.50
2018-03-04T07:03:27.341Z,60.00
2018-03-04T07:05:54.868Z,60.00
2018-03-04T07:08:22.426Z,60.10
2018-03-04T07:10:49.949Z,60.10
2018-03-04T07:13:18.254Z,60.10
2018-03-04T07:15:45.866Z,60.00
2018-03-04T07:18:13.421Z,60.70
2018-03-04T07:20:41.751Z,60.90
2018-03-04T07:23:09.315Z,59.90
2018-03-04T07:25:36.904Z,60.40
2018-03-04T07:28:04.431Z,60.10
2018-03-04T07:30:31.971Z,59.90
2018-03-04T07:32:59.508Z,60.00
2018-03-04T07:35:27.063Z,60.00
2018-03-04T07:37:54.584Z,60.10
2018-03-04T07:40:22.184Z,59.90
2018-03-04T07:42:49.724Z,59.70
2018-03-04T07:45:17.265Z,59.70
2018-03-04T07:47:44.838Z,59.50
2018-03-04T07:50:12.400Z,59.30
2018-03-04T07:52:39.976Z,59.30
2018-03-04T07:55:07.513Z,59.10
2018-03-04T07:57:35.074Z,58.90
2018-03-04T08:00:02.647Z,58.60
2018-03-04T08:02:30.222Z,58.40
2018-03-04T08:04:57.753Z,58.00
2018-03-04T08:07:25.313Z,57.80
2018-03-04T08:09:52.874Z,57.50
2018-03-04T08:12:21.119Z,57.40
2018-03-04T08:14:48.825Z,57.20
2018-03-04T08:17:16.387Z,56.90
2018-03-04T08:19:43.919Z,56.60
2018-03-04T08:22:11.489Z,56.60
2018-03-04T08:24:39.007Z,56.70
2018-03-04T08:27:18.276Z,56.50
2018-03-04T08:29:45.822Z,56.50
2018-03-04T08:32:13.378Z,56.40
2018-03-04T08:34:40.920Z,56.30
2018-03-04T08:37:08.712Z,56.20
2018-03-04T08:39:36.316Z,56.20
2018-03-04T08:42:03.839Z,56.00
2018-03-04T08:44:31.433Z,55.90
2018-03-04T08:46:58.999Z,55.80
2018-03-04T08:49:26.524Z,55.50
2018-03-04T08:51:54.388Z,55.90
2018-03-04T08:54:21.910Z,55.10
2018-03-04T08:56:50.236Z,55.10
2018-03-04T08:59:17.759Z,55.00
2018-03-04T09:01:45.284Z,54.90
2018-03-04T09:04:12.931Z,54.80
2018-03-04T09:06:41.028Z,54.80
2018-03-04T09:09:09.346Z,54.80
2018-03-04T09:11:36.903Z,54.80
2018-03-04T09:14:04.415Z,54.70
2018-03-04T09:16:32.172Z,54.90
2018-03-04T09:18:59.697Z,54.90
2018-03-04T09:21:27.589Z,54.80
2018-03-04T09:23:55.188Z,54.80
2018-03-04T09:26:24.148Z,54.60
2018-03-04T09:28:51.769Z,54.70
2018-03-04T09:31:19.333Z,54.50
2018-03-04T09:33:46.971Z,54.30
2018-03-04T09:36:15.478Z,54.30
2018-03-04T09:38:43.093Z,54.30
2018-03-04T09:41:10.620Z,54.20
2018-03-04T09:43:38.221Z,54.10
2018-03-04T09:46:05.771Z,54.40
2018-03-04T09:48:33.636Z,54.50
2018-03-04T09:51:01.193Z,54.50
2018-03-04T09:53:28.792Z,54.30
2018-03-04T09:55:56.327Z,54.00
2018-03-04T09:58:24.648Z,54.00
2018-03-04T10:00:52.169Z,53.90
2018-03-04T10:03:20.622Z,53.90
2018-03-04T10:05:48.287Z,53.90
2018-03-04T10:08:15.910Z,53.90
2018-03-04T10:10:43.497Z,54.20
2018-03-04T10:13:11.016Z,54.20
2018-03-04T10:15:38.599Z,54.40
2018-03-04T10:18:06.108Z,54.50
2018-03-04T10:20:33.652Z,54.70
2018-03-04T10:23:01.203Z,54.60
2018-03-04T10:25:28.736Z,54.70
2018-03-04T10:27:56.284Z,54.60
2018-03-04T10:30:23.784Z,54.40
2018-03-04T10:32:51.338Z,54.60
2018-03-04T10:35:18.891Z,54.40
2018-03-04T10:37:46.428Z,54.40
2018-03-04T10:40:13.991Z,53.40
2018-03-04T10:42:41.538Z,54.10
2018-03-04T10:45:09.100Z,53.30
2018-03-04T10:47:36.632Z,53.50
2018-03-04T10:50:04.175Z,53.60
2018-03-04T10:52:31.735Z,53.50
2018-03-04T10:54:59.337Z,53.50
2018-03-04T10:57:26.913Z,53.40
2018-03-04T10:59:54.463Z,53.30
2018-03-04T11:02:22.799Z,53.20
2018-03-04T11:04:50.379Z,52.90
2018-03-04T11:07:17.923Z,52.90
2018-03-04T11:09:45.481Z,52.90
2018-03-04T11:12:13.029Z,52.90
2018-03-04T11:14:41.357Z,52.70
2018-03-04T11:17:08.981Z,52.50
2018-03-04T11:19:36.492Z,52.70
2018-03-04T11:22:04.064Z,52.60
2018-03-04T11:24:31.608Z,52.60
2018-03-04T11:26:59.200Z,52.60
2018-03-04T11:29:26.794Z,52.50
2018-03-04T11:31:55.129Z,52.60
2018-03-04T11:34:23.508Z,52.50
2018-03-04T11:36:51.040Z,52.60
2018-03-04T11:39:18.690Z,52.40
2018-03-04T11:41:46.207Z,51.70
2018-03-04T11:44:13.918Z,51.60
2018-03-04T11:46:41.507Z,51.60
2018-03-04T11:49:09.147Z,51.50
2018-03-04T11:51:36.679Z,51.40
2018-03-04T11:54:04.239Z,51.50
2018-03-04T11:56:32.700Z,51.40
2018-03-04T11:59:00.254Z,50.80
2018-03-04T12:01:28.541Z,50.50
2018-03-04T12:03:56.105Z,50.50
2018-03-04T12:06:23.758Z,50.90
2018-03-04T12:08:51.308Z,50.80
2018-03-04T12:11:19.637Z,50.80
2018-03-04T12:13:47.302Z,50.80
2018-03-04T12:16:15.948Z,50.80
2018-03-04T12:18:43.519Z,50.80
2018-03-04T12:21:11.057Z,50.80
2018-03-04T12:23:39.361Z,50.30
2018-03-04T12:26:07.147Z,50.20
2018-03-04T12:28:34.665Z,50.40
2018-03-04T12:31:03.062Z,50.50
2018-03-04T12:33:30.655Z,50.40
2018-03-04T12:35:58.227Z,50.30
2018-03-04T12:38:25.818Z,50.20
2018-03-04T12:40:53.344Z,50.00
2018-03-04T12:43:20.931Z,49.60
2018-03-04T12:45:48.502Z,49.60
2018-03-04T12:48:16.125Z,49.80
2018-03-04T12:50:43.825Z,49.80
2018-03-04T12:53:11.424Z,49.70
2018-03-04T12:55:39.206Z,49.40
2018-03-04T12:58:06.818Z,49.60
2018-03-04T13:00:34.371Z,49.00
2018-03-04T13:03:03.265Z,48.90
2018-03-04T13:05:30.876Z,48.80
2018-03-04T13:07:58.451Z,48.90
2018-03-04T13:10:26.066Z,48.80
2018-03-04T13:12:53.664Z,48.70
2018-03-04T13:15:21.218Z,48.60
2018-03-04T13:17:48.836Z,48.40
2018-03-04T13:20:16.394Z,48.00
2018-03-04T13:22:43.915Z,48.00
2018-03-04T13:25:11.677Z,48.20
2018-03-04T13:27:39.242Z,48.30
2018-03-04T13:30:06.790Z,48.20
2018-03-04T13:32:34.360Z,47.90
2018-03-04T13:35:02.199Z,47.90
2018-03-04T13:37:29.757Z,48.10
2018-03-04T13:39:57.335Z,47.80
2018-03-04T13:42:24.973Z,47.60
2018-03-04T13:44:52.691Z,47.30
2018-03-04T13:47:20.325Z,47.70
2018-03-04T13:49:47.876Z,47.50
2018-03-04T13:52:15.392Z,47.60
2018-03-04T13:54:42.955Z,48.00
2018-03-04T13:57:10.512Z,47.70
2018-03-04T13:59:38.831Z,48.10
2018-03-04T14:02:06.505Z,48.00
2018-03-04T14:04:34.088Z,48.30
2018-03-04T14:07:02.383Z,48.60
2018-03-04T14:09:29.979Z,48.50
2018-03-04T14:11:57.553Z,48.30
2018-03-04T14:14:25.382Z,48.20
2018-03-04T14:16:52.921Z,47.90
2018-03-04T14:19:21.297Z,48.20
2018-03-04T14:21:49.722Z,48.10
2018-03-04T14:24:17.313Z,48.10
2018-03-04T14:26:44.952Z,48.10
2018-03-04T14:29:12.511Z,48.20
2018-03-04T14:31:40.078Z,48.40
2018-03-04T14:34:07.682Z,48.60
2018-03-04T14:36:35.264Z,48.70
2018-03-04T14:39:02.978Z,48.70
2018-03-04T14:41:30.617Z,48.60
2018-03-04T14:43:58.197Z,48.70
2018-03-04T14:46:25.792Z,48.80
2018-03-04T14:48:54.204Z,48.60
2018-03-04T14:51:21.750Z,48.60
2018-03-04T14:53:49.362Z,48.10
2018-03-04T14:56:17.180Z,46.50
2018-03-04T14:58:44.741Z,42.90
2018-03-04T15:01:12.297Z,40.10
2018-03-04T15:03:39.832Z,39.40
2018-03-04T15:06:08.179Z,40.30
2018-03-04T15:08:35.709Z,40.20
2018-03-04T15:11:03.288Z,41.20
2018-03-04T15:13:30.876Z,41.90
2018-03-04T15:15:58.539Z,42.50
2018-03-04T15:18:26.069Z,43.40
2018-03-04T15:20:53.598Z,44.20
2018-03-04T15:23:21.194Z,44.60
2018-03-04T15:25:48.732Z,45.00
2018-03-04T15:28:16.425Z,45.50
2018-03-04T15:30:44.064Z,46.10
2018-03-04T15:33:11.827Z,46.30
2018-03-04T15:35:39.480Z,46.50
2018-03-04T15:38:07.055Z,46.90
2018-03-04T15:40:35.471Z,47.20
2018-03-04T15:43:03.012Z,47.40
2018-03-04T15:45:30.587Z,47.80
2018-03-04T15:47:58.900Z,48.20
2018-03-04T15:50:26.497Z,48.10
2018-03-04T15:52:55.807Z,48.60
2018-03-04T15:55:23.440Z,48.30
2018-03-04T15:57:51.053Z,48.60
2018-03-04T16:00:18.653Z,48.70
2018-03-04T16:02:46.228Z,48.60
2018-03-04T16:05:13.921Z,48.60
2018-03-04T16:07:41.481Z,49.00
2018-03-04T16:10:09.055Z,49.10
2018-03-04T16:12:36.638Z,48.90
2018-03-04T16:15:04.981Z,49.20
2018-03-04T16:17:33.256Z,49.10
2018-03-04T16:20:00.896Z,49.30
2018-03-04T16:22:29.879Z,49.20
2018-03-04T16:24:57.493Z,49.20
2018-03-04T16:27:25.022Z,49.40
2018-03-04T16:29:52.718Z,49.60
2018-03-04T16:32:20.295Z,49.70
2018-03-04T16:34:47.884Z,49.90
2018-03-04T16:37:15.512Z,49.90
2018-03-04T16:39:43.094Z,50.30
2018-03-04T16:42:10.646Z,50.50
2018-03-04T16:44:38.286Z,50.60
2018-03-04T16:47:05.865Z,50.60
2018-03-04T16:49:33.446Z,50.40
2018-03-04T16:52:02.337Z,50.80
2018-03-04T16:54:29.903Z,50.80
2018-03-04T16:56:57.499Z,50.80
2018-03-04T16:59:25.114Z,50.90
2018-03-04T17:01:53.319Z,50.80
2018-03-04T17:04:20.919Z,50.90
2018-03-04T17:06:48.506Z,51.10
2018-03-04T17:09:16.362Z,51.20
2018-03-04T17:11:43.938Z,51.10
2018-03-04T17:14:11.499Z,51.10
2018-03-04T17:16:39.084Z,51.30
2018-03-04T17:19:06.651Z,51.50
2018-03-04T17:21:34.280Z,51.40
2018-03-04T17:24:02.106Z,51.50
2018-03-04T17:26:30.405Z,51.70
2018-03-04T17:28:57.948Z,51.70
2018-03-04T17:31:26.398Z,51.70
2018-03-04T17:33:53.971Z,51.70
2018-03-04T17:36:21.565Z,51.70
2018-03-04T17:38:49.947Z,51.70
2018-03-04T17:41:17.558Z,51.60
2018-03-04T17:43:45.085Z,51.80
2018-03-04T17:46:12.712Z,51.80
2018-03-04T17:48:40.272Z,51.80
2018-03-04T17:51:07.843Z,51.90
2018-03-04T17:53:35.424Z,51.80
2018-03-04T17:56:02.995Z,52.70
2018-03-04T17:58:30.568Z,52.10
2018-03-04T18:00:58.141Z,52.10
2018-03-04T18:03:25.663Z,52.00
2018-03-04T18:05:53.271Z,51.80
2018-03-04T18:08:20.898Z,51.80
2018-03-04T18:10:48.500Z,51.80
2018-03-04T18:13:16.057Z,51.60
2018-03-04T18:15:43.617Z,51.60
2018-03-04T18:18:11.961Z,51.80
2018-03-04T18:20:39.555Z,51.80
2018-03-04T18:23:07.113Z,52.60
2018-03-04T18:25:34.792Z,52.80
2018-03-04T18:28:03.257Z,52.50
2018-03-04T18:30:30.772Z,52.50
2018-03-04T18:32:58.334Z,52.50
2018-03-04T18:35:25.939Z,52.40
2018-03-04T18:37:53.506Z,52.30
2018-03-04T18:40:21.839Z,52.40
2018-03-04T18:42:49.436Z,52.40
2018-03-04T18:45:17.764Z,52.30
2018-03-04T18:47:45.340Z,52.30
2018-03-04T18:50:12.855Z,51.30
2018-03-04T18:52:40.446Z,52.10
2018-03-04T18:55:08.016Z,51.40
2018-03-04T18:57:35.579Z,50.60
2018-03-04T19:00:03.305Z,50.30
2018-03-04T19:02:30.867Z,50.20
2018-03-04T19:04:58.574Z,50.10
2018-03-04T19:07:26.172Z,49.80
2018-03-04T19:09:54.512Z,49.20
2018-03-04T19:12:22.063Z,49.20
2018-03-04T19:14:49.608Z,49.30
2018-03-04T19:17:17.188Z,49.10
2018-03-04T19:19:44.775Z,48.60
2018-03-04T19:22:12.304Z,48.50
2018-03-04T19:24:39.860Z,48.30
2018-03-04T19:27:07.408Z,48.70
2018-03-04T19:29:34.984Z,48.60
2018-03-04T19:32:02.681Z,48.40
2018-03-04T19:34:30.280Z,48.20
2018-03-04T19:36:57.832Z,48.80
2018-03-04T19:39:25.369Z,48.60
2018-03-04T19:41:52.916Z,48.60
2018-03-04T19:44:20.476Z,48.60
2018-03-04T19:46:48.120Z,48.70
2018-03-04T19:49:15.703Z,48.80
2018-03-04T19:51:43.327Z,48.90
2018-03-04T19:54:10.899Z,48.90
2018-03-04T19:56:38.448Z,49.00
2018-03-04T19:59:06.066Z,49.10
2018-03-04T20:01:33.696Z,49.10
2018-03-04T20:04:01.238Z,49.10
2018-03-04T20:06:28.828Z,49.20
2018-03-04T20:08:56.416Z,49.50
2018-03-04T20:11:24.015Z,49.50
2018-03-04T20:13:51.621Z,49.60
2018-03-04T20:16:19.200Z,49.70
2018-03-04T20:18:46.760Z,49.50
2018-03-04T20:21:14.340Z,49.80
2018-03-04T20:23:41.932Z,49.80
2018-03-04T20:26:09.533Z,49.70
2018-03-04T20:28:37.074Z,49.70
2018-03-04T20:31:05.429Z,50.00
2018-03-04T20:33:33.014Z,49.90
2018-03-04T20:36:00.585Z,49.90
2018-03-04T20:38:28.183Z,50.20
2018-03-04T20:40:55.725Z,50.20
2018-03-04T20:43:23.279Z,50.20
2018-03-04T20:45:50.825Z,50.50
2018-03-04T20:48:19.224Z,51.70
2018-03-04T20:50:46.819Z,51.70
2018-03-04T20:53:14.403Z,51.80
2018-03-04T20:55:42.772Z,51.80
2018-03-04T20:58:10.305Z,51.70
2018-03-04T21:00:37.934Z,50.80
2018-03-04T21:03:05.505Z,50.50
2018-03-04T21:05:33.069Z,50.40
2018-03-04T21:08:00.630Z,50.20
2018-03-04T21:10:28.280Z,50.20
2018-03-04T21:12:55.872Z,51.00
2018-03-04T21:15:23.441Z,51.20
2018-03-04T21:17:51.001Z,51.20
2018-03-04T21:20:18.592Z,51.60
2018-03-04T21:22:46.968Z,52.00
2018-03-04T21:25:15.307Z,52.00
2018-03-04T21:27:42.896Z,51.90
2018-03-04T21:30:11.310Z,51.90
2018-03-04T21:32:38.851Z,51.80
2018-03-04T21:35:06.425Z,52.00
2018-03-04T21:37:33.966Z,52.00
2018-03-04T21:40:01.552Z,52.10
2018-03-04T21:42:29.074Z,52.20
2018-03-04T21:44:56.670Z,52.40
2018-03-04T21:47:24.961Z,52.70
2018-03-04T21:49:52.526Z,52.60
2018-03-04T21:52:20.088Z,52.70
2018-03-04T21:54:47.663Z,52.90
2018-03-04T21:57:15.223Z,53.00
2018-03-04T21:59:42.764Z,53.00
2018-03-04T22:02:10.324Z,53.10
2018-03-04T22:04:37.879Z,52.90
2018-03-04T22:07:05.441Z,53.00
2018-03-04T22:09:33.077Z,53.10
2018-03-04T22:12:00.686Z,53.10
2018-03-04T22:14:28.250Z,52.90
2018-03-04T22:16:55.807Z,53.00
2018-03-04T22:19:23.408Z,52.90
2018-03-04T22:21:51.727Z,53.30
2018-03-04T22:24:19.493Z,53.30
2018-03-04T22:26:47.073Z,53.50
2018-03-04T22:29:14.611Z,53.40
2018-03-04T22:31:42.861Z,53.40
2018-03-04T22:34:10.404Z,53.30
2018-03-04T22:36:37.967Z,53.30
2018-03-04T22:39:05.568Z,53.30
2018-03-04T22:41:33.100Z,53.20
2018-03-04T22:44:00.719Z,53.30
2018-03-04T22:46:28.244Z,53.50
2018-03-04T22:48:55.812Z,53.50
2018-03-04T22:51:23.389Z,53.40
2018-03-04T22:53:50.944Z,53.40
2018-03-04T22:56:18.688Z,53.30
2018-03-04T22:58:46.250Z,53.30
2018-03-04T23:01:13.808Z,53.30
2018-03-04T23:03:41.328Z,53.40
2018-03-04T23:06:09.644Z,53.30
2018-03-04T23:08:37.455Z,53.30
2018-03-04T23:11:04.971Z,54.00
2018-03-04T23:13:33.272Z,53.50
2018-03-04T23:16:00.816Z,53.50
2018-03-04T23:18:28.348Z,53.40
2018-03-04T23:20:56.032Z,53.50
2018-03-04T23:23:23.617Z,53.50
2018-03-04T23:25:51.236Z,53.40
2018-03-04T23:28:18.767Z,53.40
2018-03-04T23:30:46.291Z,53.30
2018-03-04T23:33:13.856Z,53.40
2018-03-04T23:35:41.396Z,53.40
2018-03-04T23:38:09.741Z,53.30
2018-03-04T23:40:38.067Z,53.30
2018-03-04T23:43:05.613Z,53.30
2018-03-04T23:45:33.281Z,53.20
2018-03-04T23:48:00.853Z,53.50
2018-03-04T23:50:28.766Z,53.80
2018-03-04T23:52:56.327Z,54.00
2018-03-04T23:55:24.708Z,54.30
2018-03-04T23:57:52.341Z,54.30
